sensor_id;sensor_type;location;lat;lon;timestamp;P1;durP1;ratioP1;P2;durP2;ratioP2
84915;SDS011;75178;53.054;5.846;2024-03-02T00:02:10;2.88;;;2.10;;
84915;SDS011;75178;53.054;5.846;2024-03-02T00:04:54;5.20;;;2.65;;
84915;SDS011;75178;53.054;5.846;2024-03-02T00:07:41;4.55;;;2.22;;
84915;SDS011;75178;53.054;5.846;2024-03-02T00:10:30;4.25;;;2.00;;
84915;SDS011;75178;53.054;5.846;2024-03-02T00:13:20;3.20;;;2.17;;
84915;SDS011;75178;53.054;5.846;2024-03-02T00:16:04;2.90;;;2.00;;
84915;SDS011;75178;53.054;5.846;2024-03-02T00:18:49;2.17;;;1.85;;
84915;SDS011;75178;53.054;5.846;2024-03-02T00:21:33;6.05;;;2.83;;
84915;SDS011;75178;53.054;5.846;2024-03-02T00:24:18;3.67;;;2.08;;
84915;SDS011;75178;53.054;5.846;2024-03-02T00:27:06;6.13;;;2.38;;
84915;SDS011;75178;53.054;5.846;2024-03-02T00:29:51;4.05;;;2.20;;
84915;SDS011;75178;53.054;5.846;2024-03-02T00:32:35;2.53;;;2.05;;
84915;SDS011;75178;53.054;5.846;2024-03-02T00:35:19;5.68;;;2.50;;
84915;SDS011;75178;53.054;5.846;2024-03-02T00:38:06;2.47;;;2.28;;
84915;SDS011;75178;53.054;5.846;2024-03-02T00:40:51;2.88;;;2.45;;
84915;SDS011;75178;53.054;5.846;2024-03-02T00:43:43;3.10;;;2.05;;
84915;SDS011;75178;53.054;5.846;2024-03-02T00:46:29;2.55;;;2.10;;
84915;SDS011;75178;53.054;5.846;2024-03-02T00:49:17;3.90;;;2.53;;
84915;SDS011;75178;53.054;5.846;2024-03-02T00:52:04;2.60;;;2.10;;
84915;SDS011;75178;53.054;5.846;2024-03-02T00:54:50;4.65;;;2.55;;
84915;SDS011;75178;53.054;5.846;2024-03-02T00:57:35;4.15;;;2.28;;
84915;SDS011;75178;53.054;5.846;2024-03-02T01:00:21;5.20;;;2.50;;
84915;SDS011;75178;53.054;5.846;2024-03-02T01:03:05;3.80;;;2.35;;
84915;SDS011;75178;53.054;5.846;2024-03-02T01:05:49;4.20;;;2.03;;
84915;SDS011;75178;53.054;5.846;2024-03-02T01:08:33;6.32;;;2.67;;
84915;SDS011;75178;53.054;5.846;2024-03-02T01:11:18;8.30;;;2.15;;
84915;SDS011;75178;53.054;5.846;2024-03-02T01:14:02;5.15;;;1.95;;
84915;SDS011;75178;53.054;5.846;2024-03-02T01:16:48;2.83;;;2.00;;
84915;SDS011;75178;53.054;5.846;2024-03-02T01:19:32;4.55;;;2.22;;
84915;SDS011;75178;53.054;5.846;2024-03-02T01:22:16;4.07;;;1.98;;
84915;SDS011;75178;53.054;5.846;2024-03-02T01:25:00;4.18;;;1.90;;
84915;SDS011;75178;53.054;5.846;2024-03-02T01:27:44;2.20;;;1.60;;
84915;SDS011;75178;53.054;5.846;2024-03-02T01:30:29;5.82;;;1.80;;
84915;SDS011;75178;53.054;5.846;2024-03-02T01:33:14;2.53;;;2.00;;
84915;SDS011;75178;53.054;5.846;2024-03-02T01:35:58;6.20;;;2.20;;
84915;SDS011;75178;53.054;5.846;2024-03-02T01:38:43;3.90;;;1.85;;
84915;SDS011;75178;53.054;5.846;2024-03-02T01:41:27;4.00;;;2.00;;
84915;SDS011;75178;53.054;5.846;2024-03-02T01:44:11;4.50;;;2.20;;
84915;SDS011;75178;53.054;5.846;2024-03-02T01:46:55;3.40;;;1.65;;
84915;SDS011;75178;53.054;5.846;2024-03-02T01:49:41;4.32;;;2.10;;
84915;SDS011;75178;53.054;5.846;2024-03-02T01:52:25;3.30;;;1.73;;
84915;SDS011;75178;53.054;5.846;2024-03-02T01:55:10;3.08;;;1.75;;
84915;SDS011;75178;53.054;5.846;2024-03-02T01:57:54;3.70;;;1.70;;
84915;SDS011;75178;53.054;5.846;2024-03-02T02:00:38;2.58;;;1.95;;
84915;SDS011;75178;53.054;5.846;2024-03-02T02:03:22;3.15;;;1.88;;
84915;SDS011;75178;53.054;5.846;2024-03-02T02:06:08;4.57;;;2.08;;
84915;SDS011;75178;53.054;5.846;2024-03-02T02:08:52;3.05;;;1.95;;
84915;SDS011;75178;53.054;5.846;2024-03-02T02:11:36;5.47;;;1.92;;
84915;SDS011;75178;53.054;5.846;2024-03-02T02:14:20;4.55;;;1.73;;
84915;SDS011;75178;53.054;5.846;2024-03-02T02:17:04;2.60;;;1.60;;
84915;SDS011;75178;53.054;5.846;2024-03-02T02:19:48;3.25;;;1.80;;
84915;SDS011;75178;53.054;5.846;2024-03-02T02:22:34;3.72;;;1.98;;
84915;SDS011;75178;53.054;5.846;2024-03-02T02:25:18;3.00;;;1.50;;
84915;SDS011;75178;53.054;5.846;2024-03-02T02:28:02;3.53;;;1.63;;
84915;SDS011;75178;53.054;5.846;2024-03-02T02:30:47;4.60;;;1.63;;
84915;SDS011;75178;53.054;5.846;2024-03-02T02:33:31;4.78;;;1.30;;
84915;SDS011;75178;53.054;5.846;2024-03-02T02:36:15;3.13;;;1.63;;
84915;SDS011;75178;53.054;5.846;2024-03-02T02:39:01;2.47;;;1.98;;
84915;SDS011;75178;53.054;5.846;2024-03-02T02:41:47;3.10;;;1.40;;
84915;SDS011;75178;53.054;5.846;2024-03-02T02:44:31;2.25;;;1.45;;
84915;SDS011;75178;53.054;5.846;2024-03-02T02:47:15;2.58;;;1.75;;
84915;SDS011;75178;53.054;5.846;2024-03-02T02:49:59;4.00;;;1.90;;
84915;SDS011;75178;53.054;5.846;2024-03-02T02:52:44;4.72;;;1.92;;
84915;SDS011;75178;53.054;5.846;2024-03-02T02:55:29;5.78;;;2.30;;
84915;SDS011;75178;53.054;5.846;2024-03-02T02:58:13;2.80;;;1.80;;
84915;SDS011;75178;53.054;5.846;2024-03-02T03:00:57;1.85;;;1.23;;
84915;SDS011;75178;53.054;5.846;2024-03-02T03:03:42;4.30;;;1.40;;
84915;SDS011;75178;53.054;5.846;2024-03-02T03:06:26;3.90;;;1.40;;
84915;SDS011;75178;53.054;5.846;2024-03-02T03:09:10;3.03;;;1.30;;
84915;SDS011;75178;53.054;5.846;2024-03-02T03:11:56;4.72;;;1.40;;
84915;SDS011;75178;53.054;5.846;2024-03-02T03:14:40;3.17;;;1.60;;
84915;SDS011;75178;53.054;5.846;2024-03-02T03:17:24;3.40;;;2.08;;
84915;SDS011;75178;53.054;5.846;2024-03-02T03:20:09;3.65;;;1.92;;
84915;SDS011;75178;53.054;5.846;2024-03-02T03:22:54;2.92;;;1.50;;
84915;SDS011;75178;53.054;5.846;2024-03-02T03:25:38;3.10;;;1.45;;
84915;SDS011;75178;53.054;5.846;2024-03-02T03:28:23;2.67;;;1.50;;
84915;SDS011;75178;53.054;5.846;2024-03-02T03:31:07;3.20;;;1.45;;
84915;SDS011;75178;53.054;5.846;2024-03-02T03:33:52;3.13;;;1.10;;
84915;SDS011;75178;53.054;5.846;2024-03-02T03:36:36;1.70;;;1.02;;
84915;SDS011;75178;53.054;5.846;2024-03-02T03:39:21;1.85;;;1.10;;
84915;SDS011;75178;53.054;5.846;2024-03-02T03:42:05;1.05;;;0.93;;
84915;SDS011;75178;53.054;5.846;2024-03-02T03:44:51;2.15;;;1.05;;
84915;SDS011;75178;53.054;5.846;2024-03-02T03:47:35;2.03;;;1.00;;
84915;SDS011;75178;53.054;5.846;2024-03-02T03:50:19;1.08;;;0.88;;
84915;SDS011;75178;53.054;5.846;2024-03-02T03:53:03;3.83;;;1.10;;
84915;SDS011;75178;53.054;5.846;2024-03-02T03:55:48;3.58;;;1.08;;
84915;SDS011;75178;53.054;5.846;2024-03-02T03:58:32;1.45;;;0.80;;
84915;SDS011;75178;53.054;5.846;2024-03-02T04:01:18;0.57;;;0.57;;
84915;SDS011;75178;53.054;5.846;2024-03-02T04:04:02;0.93;;;0.70;;
84915;SDS011;75178;53.054;5.846;2024-03-02T04:06:46;0.85;;;0.60;;
84915;SDS011;75178;53.054;5.846;2024-03-02T04:09:30;0.80;;;0.45;;
84915;SDS011;75178;53.054;5.846;2024-03-02T04:12:14;1.20;;;0.57;;
84915;SDS011;75178;53.054;5.846;2024-03-02T04:14:58;1.20;;;0.60;;
84915;SDS011;75178;53.054;5.846;2024-03-02T04:17:44;1.58;;;0.50;;
84915;SDS011;75178;53.054;5.846;2024-03-02T04:20:28;0.70;;;0.40;;
84915;SDS011;75178;53.054;5.846;2024-03-02T04:23:12;1.15;;;0.50;;
84915;SDS011;75178;53.054;5.846;2024-03-02T04:25:56;1.38;;;0.60;;
84915;SDS011;75178;53.054;5.846;2024-03-02T04:28:40;1.25;;;0.80;;
84915;SDS011;75178;53.054;5.846;2024-03-02T04:31:24;2.38;;;0.68;;
84915;SDS011;75178;53.054;5.846;2024-03-02T04:34:10;1.58;;;0.70;;
84915;SDS011;75178;53.054;5.846;2024-03-02T04:36:54;1.42;;;0.63;;
84915;SDS011;75178;53.054;5.846;2024-03-02T04:39:38;0.55;;;0.52;;
84915;SDS011;75178;53.054;5.846;2024-03-02T04:42:23;0.73;;;0.50;;
84915;SDS011;75178;53.054;5.846;2024-03-02T04:45:07;0.73;;;0.52;;
84915;SDS011;75178;53.054;5.846;2024-03-02T04:47:51;0.68;;;0.50;;
84915;SDS011;75178;53.054;5.846;2024-03-02T04:50:37;1.08;;;0.80;;
84915;SDS011;75178;53.054;5.846;2024-03-02T04:53:21;0.57;;;0.57;;
84915;SDS011;75178;53.054;5.846;2024-03-02T04:56:05;1.90;;;0.70;;
84915;SDS011;75178;53.054;5.846;2024-03-02T04:58:49;1.23;;;0.60;;
84915;SDS011;75178;53.054;5.846;2024-03-02T05:01:33;2.33;;;0.55;;
84915;SDS011;75178;53.054;5.846;2024-03-02T05:04:17;0.70;;;0.55;;
84915;SDS011;75178;53.054;5.846;2024-03-02T05:07:03;1.92;;;0.98;;
84915;SDS011;75178;53.054;5.846;2024-03-02T05:09:47;0.52;;;0.50;;
84915;SDS011;75178;53.054;5.846;2024-03-02T05:12:31;0.77;;;0.60;;
84915;SDS011;75178;53.054;5.846;2024-03-02T05:15:16;0.80;;;0.40;;
84915;SDS011;75178;53.054;5.846;2024-03-02T05:18:00;0.40;;;0.40;;
84915;SDS011;75178;53.054;5.846;2024-03-02T05:20:45;2.15;;;0.63;;
84915;SDS011;75178;53.054;5.846;2024-03-02T05:23:30;0.85;;;0.60;;
84915;SDS011;75178;53.054;5.846;2024-03-02T05:26:14;2.88;;;0.80;;
84915;SDS011;75178;53.054;5.846;2024-03-02T05:28:59;0.82;;;0.43;;
84915;SDS011;75178;53.054;5.846;2024-03-02T05:31:43;2.78;;;0.50;;
84915;SDS011;75178;53.054;5.846;2024-03-02T05:34:27;1.67;;;0.50;;
84915;SDS011;75178;53.054;5.846;2024-03-02T05:37:11;1.13;;;0.50;;
84915;SDS011;75178;53.054;5.846;2024-03-02T05:39:56;2.28;;;0.60;;
84915;SDS011;75178;53.054;5.846;2024-03-02T05:42:41;1.40;;;0.80;;
84915;SDS011;75178;53.054;5.846;2024-03-02T05:45:25;1.98;;;0.60;;
84915;SDS011;75178;53.054;5.846;2024-03-02T05:48:09;1.25;;;0.47;;
84915;SDS011;75178;53.054;5.846;2024-03-02T05:50:53;0.70;;;0.40;;
84915;SDS011;75178;53.054;5.846;2024-03-02T05:53:37;2.03;;;0.60;;
84915;SDS011;75178;53.054;5.846;2024-03-02T05:56:23;2.03;;;0.70;;
84915;SDS011;75178;53.054;5.846;2024-03-02T05:59:07;0.68;;;0.45;;
84915;SDS011;75178;53.054;5.846;2024-03-02T06:01:51;1.48;;;0.60;;
84915;SDS011;75178;53.054;5.846;2024-03-02T06:04:35;0.50;;;0.50;;
84915;SDS011;75178;53.054;5.846;2024-03-02T06:07:19;1.98;;;0.82;;
84915;SDS011;75178;53.054;5.846;2024-03-02T06:10:04;0.80;;;0.65;;
84915;SDS011;75178;53.054;5.846;2024-03-02T06:12:50;0.82;;;0.60;;
84915;SDS011;75178;53.054;5.846;2024-03-02T06:15:35;1.02;;;0.90;;
84915;SDS011;75178;53.054;5.846;2024-03-02T06:18:19;1.52;;;0.80;;
84915;SDS011;75178;53.054;5.846;2024-03-02T06:21:03;1.45;;;0.77;;
84915;SDS011;75178;53.054;5.846;2024-03-02T06:23:48;0.73;;;0.73;;
84915;SDS011;75178;53.054;5.846;2024-03-02T06:26:32;2.67;;;1.05;;
84915;SDS011;75178;53.054;5.846;2024-03-02T06:29:17;2.45;;;1.45;;
84915;SDS011;75178;53.054;5.846;2024-03-02T06:32:02;2.88;;;1.77;;
84915;SDS011;75178;53.054;5.846;2024-03-02T06:34:46;1.20;;;1.10;;
84915;SDS011;75178;53.054;5.846;2024-03-02T06:37:30;1.00;;;0.80;;
84915;SDS011;75178;53.054;5.846;2024-03-02T06:40:14;0.70;;;0.70;;
84915;SDS011;75178;53.054;5.846;2024-03-02T06:42:59;1.02;;;0.75;;
84915;SDS011;75178;53.054;5.846;2024-03-02T06:45:45;0.88;;;0.82;;
84915;SDS011;75178;53.054;5.846;2024-03-02T06:48:29;4.53;;;0.90;;
84915;SDS011;75178;53.054;5.846;2024-03-02T06:51:13;2.72;;;1.05;;
84915;SDS011;75178;53.054;5.846;2024-03-02T06:53:57;0.80;;;0.80;;
84915;SDS011;75178;53.054;5.846;2024-03-02T06:56:41;2.72;;;0.80;;
84915;SDS011;75178;53.054;5.846;2024-03-02T06:59:26;3.08;;;1.20;;
84915;SDS011;75178;53.054;5.846;2024-03-02T07:02:11;1.67;;;0.80;;
84915;SDS011;75178;53.054;5.846;2024-03-02T07:04:56;1.23;;;0.90;;
84915;SDS011;75178;53.054;5.846;2024-03-02T07:07:40;3.20;;;1.08;;
84915;SDS011;75178;53.054;5.846;2024-03-02T07:10:24;1.13;;;0.80;;
84915;SDS011;75178;53.054;5.846;2024-03-02T07:13:08;2.03;;;0.85;;
84915;SDS011;75178;53.054;5.846;2024-03-02T07:15:53;2.75;;;0.93;;
84915;SDS011;75178;53.054;5.846;2024-03-02T07:18:38;2.80;;;0.90;;
84915;SDS011;75178;53.054;5.846;2024-03-02T07:21:22;1.27;;;0.70;;
84915;SDS011;75178;53.054;5.846;2024-03-02T07:24:07;1.23;;;0.80;;
84915;SDS011;75178;53.054;5.846;2024-03-02T07:26:51;2.03;;;0.88;;
84915;SDS011;75178;53.054;5.846;2024-03-02T07:29:35;3.13;;;0.95;;
84915;SDS011;75178;53.054;5.846;2024-03-02T07:32:20;1.50;;;0.80;;
84915;SDS011;75178;53.054;5.846;2024-03-02T07:35:06;1.90;;;1.13;;
84915;SDS011;75178;53.054;5.846;2024-03-02T07:37:51;1.17;;;0.90;;
84915;SDS011;75178;53.054;5.846;2024-03-02T07:40:35;1.20;;;1.02;;
84915;SDS011;75178;53.054;5.846;2024-03-02T07:43:19;1.40;;;0.90;;
84915;SDS011;75178;53.054;5.846;2024-03-02T07:46:03;2.40;;;0.88;;
84915;SDS011;75178;53.054;5.846;2024-03-02T07:48:48;2.15;;;0.70;;
84915;SDS011;75178;53.054;5.846;2024-03-02T07:51:34;1.23;;;0.75;;
84915;SDS011;75178;53.054;5.846;2024-03-02T07:54:18;1.98;;;0.75;;
84915;SDS011;75178;53.054;5.846;2024-03-02T07:57:02;1.17;;;0.93;;
84915;SDS011;75178;53.054;5.846;2024-03-02T07:59:47;2.72;;;1.10;;
84915;SDS011;75178;53.054;5.846;2024-03-02T08:02:31;1.77;;;1.00;;
84915;SDS011;75178;53.054;5.846;2024-03-02T08:05:15;2.97;;;1.20;;
84915;SDS011;75178;53.054;5.846;2024-03-02T08:08:01;1.67;;;0.98;;
84915;SDS011;75178;53.054;5.846;2024-03-02T08:10:45;3.40;;;1.23;;
84915;SDS011;75178;53.054;5.846;2024-03-02T08:13:29;1.25;;;0.88;;
84915;SDS011;75178;53.054;5.846;2024-03-02T08:16:13;2.95;;;1.20;;
84915;SDS011;75178;53.054;5.846;2024-03-02T08:18:58;5.22;;;0.90;;
84915;SDS011;75178;53.054;5.846;2024-03-02T08:21:42;5.32;;;1.25;;
84915;SDS011;75178;53.054;5.846;2024-03-02T08:24:28;3.22;;;1.25;;
84915;SDS011;75178;53.054;5.846;2024-03-02T08:27:13;1.80;;;0.95;;
84915;SDS011;75178;53.054;5.846;2024-03-02T08:29:57;1.90;;;0.88;;
84915;SDS011;75178;53.054;5.846;2024-03-02T08:32:41;2.47;;;1.05;;
84915;SDS011;75178;53.054;5.846;2024-03-02T08:35:25;3.28;;;1.02;;
84915;SDS011;75178;53.054;5.846;2024-03-02T08:38:10;3.95;;;1.80;;
84915;SDS011;75178;53.054;5.846;2024-03-02T08:40:55;3.13;;;0.90;;
84915;SDS011;75178;53.054;5.846;2024-03-02T08:43:40;4.43;;;0.80;;
84915;SDS011;75178;53.054;5.846;2024-03-02T08:46:25;2.42;;;0.70;;
84915;SDS011;75178;53.054;5.846;2024-03-02T08:49:09;4.15;;;0.70;;
84915;SDS011;75178;53.054;5.846;2024-03-02T08:51:54;3.25;;;0.80;;
84915;SDS011;75178;53.054;5.846;2024-03-02T08:54:38;2.45;;;0.90;;
84915;SDS011;75178;53.054;5.846;2024-03-02T08:57:24;2.10;;;0.90;;
84915;SDS011;75178;53.054;5.846;2024-03-02T09:00:08;1.73;;;1.00;;
84915;SDS011;75178;53.054;5.846;2024-03-02T09:02:53;0.90;;;0.57;;
84915;SDS011;75178;53.054;5.846;2024-03-02T09:05:37;1.95;;;0.88;;
84915;SDS011;75178;53.054;5.846;2024-03-02T09:08:21;5.07;;;0.80;;
84915;SDS011;75178;53.054;5.846;2024-03-02T09:11:06;5.35;;;1.13;;
84915;SDS011;75178;53.054;5.846;2024-03-02T09:13:52;2.17;;;0.63;;
84915;SDS011;75178;53.054;5.846;2024-03-02T09:16:36;2.92;;;0.60;;
84915;SDS011;75178;53.054;5.846;2024-03-02T09:19:21;1.73;;;0.80;;
84915;SDS011;75178;53.054;5.846;2024-03-02T09:22:05;2.08;;;0.70;;
84915;SDS011;75178;53.054;5.846;2024-03-02T09:24:49;4.03;;;1.05;;
84915;SDS011;75178;53.054;5.846;2024-03-02T09:27:35;2.97;;;0.82;;
84915;SDS011;75178;53.054;5.846;2024-03-02T09:30:21;5.25;;;0.82;;
84915;SDS011;75178;53.054;5.846;2024-03-02T09:33:06;3.08;;;0.80;;
84915;SDS011;75178;53.054;5.846;2024-03-02T09:35:50;4.70;;;0.80;;
84915;SDS011;75178;53.054;5.846;2024-03-02T09:38:34;2.13;;;0.75;;
84915;SDS011;75178;53.054;5.846;2024-03-02T09:41:18;1.48;;;0.60;;
84915;SDS011;75178;53.054;5.846;2024-03-02T09:44:03;3.92;;;1.05;;
84915;SDS011;75178;53.054;5.846;2024-03-02T09:46:49;6.05;;;0.88;;
84915;SDS011;75178;53.054;5.846;2024-03-02T09:49:34;5.07;;;0.70;;
84915;SDS011;75178;53.054;5.846;2024-03-02T09:52:19;2.20;;;0.80;;
84915;SDS011;75178;53.054;5.846;2024-03-02T09:55:03;1.98;;;0.85;;
84915;SDS011;75178;53.054;5.846;2024-03-02T09:57:48;2.78;;;0.50;;
84915;SDS011;75178;53.054;5.846;2024-03-02T10:00:32;1.77;;;0.68;;
84915;SDS011;75178;53.054;5.846;2024-03-02T10:03:18;1.55;;;0.90;;
84915;SDS011;75178;53.054;5.846;2024-03-02T10:06:18;2.35;;;0.68;;
84915;SDS011;75178;53.054;5.846;2024-03-02T10:09:02;3.92;;;0.93;;
84915;SDS011;75178;53.054;5.846;2024-03-02T10:11:46;5.07;;;0.80;;
84915;SDS011;75178;53.054;5.846;2024-03-02T10:14:30;2.10;;;0.60;;
84915;SDS011;75178;53.054;5.846;2024-03-02T10:17:16;3.42;;;0.75;;
84915;SDS011;75178;53.054;5.846;2024-03-02T10:20:24;4.72;;;0.90;;
84915;SDS011;75178;53.054;5.846;2024-03-02T10:23:10;2.55;;;0.70;;
84915;SDS011;75178;53.054;5.846;2024-03-02T10:25:55;1.92;;;0.90;;
84915;SDS011;75178;53.054;5.846;2024-03-02T10:28:41;4.97;;;1.67;;
84915;SDS011;75178;53.054;5.846;2024-03-02T10:31:30;6.57;;;1.23;;
84915;SDS011;75178;53.054;5.846;2024-03-02T10:34:14;4.72;;;1.00;;
84915;SDS011;75178;53.054;5.846;2024-03-02T10:36:59;2.85;;;0.70;;
84915;SDS011;75178;53.054;5.846;2024-03-02T10:39:45;5.05;;;0.80;;
84915;SDS011;75178;53.054;5.846;2024-03-02T10:42:30;2.90;;;1.25;;
84915;SDS011;75178;53.054;5.846;2024-03-02T10:45:14;2.92;;;0.95;;
84915;SDS011;75178;53.054;5.846;2024-03-02T10:48:00;6.38;;;1.80;;
84915;SDS011;75178;53.054;5.846;2024-03-02T10:50:46;4.22;;;1.90;;
84915;SDS011;75178;53.054;5.846;2024-03-02T10:53:31;2.05;;;0.60;;
84915;SDS011;75178;53.054;5.846;2024-03-02T10:56:19;4.28;;;1.08;;
84915;SDS011;75178;53.054;5.846;2024-03-02T10:59:14;3.95;;;0.90;;
84915;SDS011;75178;53.054;5.846;2024-03-02T11:02:05;4.22;;;0.90;;
84915;SDS011;75178;53.054;5.846;2024-03-02T11:04:54;1.70;;;0.52;;
84915;SDS011;75178;53.054;5.846;2024-03-02T11:07:39;2.10;;;0.90;;
84915;SDS011;75178;53.054;5.846;2024-03-02T11:10:25;1.08;;;0.60;;
84915;SDS011;75178;53.054;5.846;2024-03-02T11:13:12;1.23;;;0.60;;
84915;SDS011;75178;53.054;5.846;2024-03-02T11:15:58;2.75;;;0.90;;
84915;SDS011;75178;53.054;5.846;2024-03-02T11:18:47;6.10;;;0.97;;
84915;SDS011;75178;53.054;5.846;2024-03-02T11:21:32;2.17;;;0.60;;
84915;SDS011;75178;53.054;5.846;2024-03-02T11:24:30;0.90;;;0.55;;
84915;SDS011;75178;53.054;5.846;2024-03-02T11:30:52;2.67;;;0.93;;
84915;SDS011;75178;53.054;5.846;2024-03-02T11:33:37;2.70;;;0.88;;
84915;SDS011;75178;53.054;5.846;2024-03-02T11:36:21;5.20;;;1.33;;
84915;SDS011;75178;53.054;5.846;2024-03-02T11:39:06;4.18;;;1.17;;
84915;SDS011;75178;53.054;5.846;2024-03-02T11:41:50;5.20;;;1.30;;
84915;SDS011;75178;53.054;5.846;2024-03-02T11:44:34;3.05;;;1.20;;
84915;SDS011;75178;53.054;5.846;2024-03-02T11:47:21;1.60;;;0.90;;
84915;SDS011;75178;53.054;5.846;2024-03-02T11:50:05;7.75;;;1.70;;
84915;SDS011;75178;53.054;5.846;2024-03-02T11:52:50;9.02;;;1.02;;
84915;SDS011;75178;53.054;5.846;2024-03-02T11:55:35;2.28;;;1.00;;
84915;SDS011;75178;53.054;5.846;2024-03-02T11:58:20;4.43;;;1.42;;
84915;SDS011;75178;53.054;5.846;2024-03-02T12:01:04;4.85;;;1.30;;
84915;SDS011;75178;53.054;5.846;2024-03-02T12:03:50;3.65;;;1.23;;
84915;SDS011;75178;53.054;5.846;2024-03-02T12:06:35;3.83;;;1.00;;
84915;SDS011;75178;53.054;5.846;2024-03-02T12:09:20;6.00;;;1.10;;
84915;SDS011;75178;53.054;5.846;2024-03-02T12:12:05;3.03;;;1.27;;
84915;SDS011;75178;53.054;5.846;2024-03-02T12:14:50;3.60;;;1.15;;
84915;SDS011;75178;53.054;5.846;2024-03-02T12:17:35;4.28;;;1.20;;
84915;SDS011;75178;53.054;5.846;2024-03-02T12:20:21;4.10;;;1.10;;
84915;SDS011;75178;53.054;5.846;2024-03-02T12:23:05;4.28;;;1.50;;
84915;SDS011;75178;53.054;5.846;2024-03-02T12:25:49;3.55;;;1.40;;
84915;SDS011;75178;53.054;5.846;2024-03-02T12:28:34;5.32;;;1.30;;
84915;SDS011;75178;53.054;5.846;2024-03-02T12:31:18;3.05;;;1.30;;
84915;SDS011;75178;53.054;5.846;2024-03-02T12:34:03;4.72;;;1.30;;
84915;SDS011;75178;53.054;5.846;2024-03-02T12:36:49;4.63;;;1.10;;
84915;SDS011;75178;53.054;5.846;2024-03-02T12:39:33;3.80;;;1.00;;
84915;SDS011;75178;53.054;5.846;2024-03-02T12:42:17;4.05;;;1.25;;
84915;SDS011;75178;53.054;5.846;2024-03-02T12:45:02;4.15;;;1.40;;
84915;SDS011;75178;53.054;5.846;2024-03-02T12:47:47;8.95;;;1.85;;
84915;SDS011;75178;53.054;5.846;2024-03-02T12:50:31;4.60;;;1.25;;
84915;SDS011;75178;53.054;5.846;2024-03-02T12:53:17;5.43;;;1.48;;
84915;SDS011;75178;53.054;5.846;2024-03-02T12:56:02;3.60;;;1.27;;
84915;SDS011;75178;53.054;5.846;2024-03-02T12:58:47;2.65;;;1.25;;
84915;SDS011;75178;53.054;5.846;2024-03-02T13:01:31;5.10;;;1.30;;
84915;SDS011;75178;53.054;5.846;2024-03-02T13:04:15;2.95;;;1.27;;
84915;SDS011;75178;53.054;5.846;2024-03-02T13:06:59;2.67;;;1.27;;
84915;SDS011;75178;53.054;5.846;2024-03-02T13:09:46;3.40;;;1.50;;
84915;SDS011;75178;53.054;5.846;2024-03-02T13:12:30;5.55;;;1.23;;
84915;SDS011;75178;53.054;5.846;2024-03-02T13:15:15;4.38;;;1.25;;
84915;SDS011;75178;53.054;5.846;2024-03-02T13:17:59;3.80;;;1.10;;
84915;SDS011;75178;53.054;5.846;2024-03-02T13:20:44;3.17;;;1.17;;
84915;SDS011;75178;53.054;5.846;2024-03-02T13:23:28;3.92;;;1.27;;
84915;SDS011;75178;53.054;5.846;2024-03-02T13:26:13;4.25;;;0.88;;
84915;SDS011;75178;53.054;5.846;2024-03-02T13:28:58;3.88;;;0.95;;
84915;SDS011;75178;53.054;5.846;2024-03-02T13:31:46;3.13;;;1.70;;
84915;SDS011;75178;53.054;5.846;2024-03-02T13:34:35;1.65;;;0.85;;
84915;SDS011;75178;53.054;5.846;2024-03-02T13:37:36;5.38;;;1.40;;
84915;SDS011;75178;53.054;5.846;2024-03-02T13:40:24;5.93;;;1.50;;
84915;SDS011;75178;53.054;5.846;2024-03-02T13:43:14;6.30;;;1.65;;
84915;SDS011;75178;53.054;5.846;2024-03-02T13:45:59;5.90;;;1.70;;
84915;SDS011;75178;53.054;5.846;2024-03-02T13:48:45;2.20;;;1.13;;
84915;SDS011;75178;53.054;5.846;2024-03-02T13:51:29;5.55;;;1.10;;
84915;SDS011;75178;53.054;5.846;2024-03-02T13:54:13;2.53;;;1.00;;
84915;SDS011;75178;53.054;5.846;2024-03-02T13:56:58;1.45;;;0.73;;
84915;SDS011;75178;53.054;5.846;2024-03-02T13:59:59;5.13;;;1.08;;
84915;SDS011;75178;53.054;5.846;2024-03-02T14:02:45;3.63;;;0.90;;
84915;SDS011;75178;53.054;5.846;2024-03-02T14:05:34;3.05;;;0.80;;
84915;SDS011;75178;53.054;5.846;2024-03-02T14:08:36;4.38;;;0.90;;
84915;SDS011;75178;53.054;5.846;2024-03-02T14:11:20;2.65;;;0.88;;
84915;SDS011;75178;53.054;5.846;2024-03-02T14:14:15;4.40;;;0.80;;
84915;SDS011;75178;53.054;5.846;2024-03-02T14:17:16;3.60;;;1.08;;
84915;SDS011;75178;53.054;5.846;2024-03-02T14:20:00;5.47;;;0.93;;
84915;SDS011;75178;53.054;5.846;2024-03-02T14:22:44;2.83;;;0.88;;
84915;SDS011;75178;53.054;5.846;2024-03-02T14:25:29;2.28;;;0.82;;
84915;SDS011;75178;53.054;5.846;2024-03-02T14:28:13;1.52;;;0.60;;
84915;SDS011;75178;53.054;5.846;2024-03-02T14:30:57;7.22;;;0.93;;
84915;SDS011;75178;53.054;5.846;2024-03-02T14:33:43;3.40;;;0.95;;
84915;SDS011;75178;53.054;5.846;2024-03-02T14:36:27;1.98;;;0.85;;
84915;SDS011;75178;53.054;5.846;2024-03-02T14:39:11;2.67;;;1.00;;
84915;SDS011;75178;53.054;5.846;2024-03-02T14:41:55;2.40;;;0.93;;
84915;SDS011;75178;53.054;5.846;2024-03-02T14:44:40;2.85;;;0.80;;
84915;SDS011;75178;53.054;5.846;2024-03-02T14:47:24;4.40;;;1.13;;
84915;SDS011;75178;53.054;5.846;2024-03-02T14:50:09;2.42;;;0.95;;
84915;SDS011;75178;53.054;5.846;2024-03-02T14:53:02;1.49;;;0.77;;
84915;SDS011;75178;53.054;5.846;2024-03-02T14:55:46;2.42;;;1.35;;
84915;SDS011;75178;53.054;5.846;2024-03-02T14:58:30;4.57;;;1.25;;
84915;SDS011;75178;53.054;5.846;2024-03-02T15:01:14;4.68;;;1.40;;
84915;SDS011;75178;53.054;5.846;2024-03-02T15:03:59;2.85;;;1.20;;
84915;SDS011;75178;53.054;5.846;2024-03-02T15:06:45;3.65;;;1.15;;
84915;SDS011;75178;53.054;5.846;2024-03-02T15:09:29;2.13;;;1.00;;
84915;SDS011;75178;53.054;5.846;2024-03-02T15:12:13;2.85;;;1.50;;
84915;SDS011;75178;53.054;5.846;2024-03-02T15:14:57;1.90;;;1.30;;
84915;SDS011;75178;53.054;5.846;2024-03-02T15:17:42;2.08;;;1.30;;
84915;SDS011;75178;53.054;5.846;2024-03-02T15:20:26;4.15;;;1.25;;
84915;SDS011;75178;53.054;5.846;2024-03-02T15:23:11;1.58;;;1.00;;
84915;SDS011;75178;53.054;5.846;2024-03-02T15:25:55;3.50;;;1.75;;
84915;SDS011;75178;53.054;5.846;2024-03-02T15:28:39;3.80;;;1.52;;
84915;SDS011;75178;53.054;5.846;2024-03-02T15:31:24;6.75;;;1.88;;
84915;SDS011;75178;53.054;5.846;2024-03-02T15:34:08;3.47;;;1.55;;
84915;SDS011;75178;53.054;5.846;2024-03-02T15:36:52;5.05;;;1.52;;
84915;SDS011;75178;53.054;5.846;2024-03-02T15:39:37;2.03;;;1.40;;
84915;SDS011;75178;53.054;5.846;2024-03-02T15:42:21;4.63;;;1.65;;
84915;SDS011;75178;53.054;5.846;2024-03-02T15:45:06;2.05;;;1.42;;
84915;SDS011;75178;53.054;5.846;2024-03-02T15:47:50;4.82;;;1.50;;
84915;SDS011;75178;53.054;5.846;2024-03-02T15:50:34;5.57;;;2.05;;
84915;SDS011;75178;53.054;5.846;2024-03-02T15:53:19;5.90;;;1.85;;
84915;SDS011;75178;53.054;5.846;2024-03-02T15:56:04;6.38;;;2.10;;
84915;SDS011;75178;53.054;5.846;2024-03-02T15:58:49;3.78;;;2.38;;
84915;SDS011;75178;53.054;5.846;2024-03-02T16:01:33;2.85;;;2.17;;
84915;SDS011;75178;53.054;5.846;2024-03-02T16:04:17;4.63;;;2.30;;
84915;SDS011;75178;53.054;5.846;2024-03-02T16:07:01;5.88;;;2.45;;
84915;SDS011;75178;53.054;5.846;2024-03-02T16:09:46;4.13;;;2.20;;
84915;SDS011;75178;53.054;5.846;2024-03-02T16:12:31;8.18;;;2.10;;
84915;SDS011;75178;53.054;5.846;2024-03-02T16:15:16;3.40;;;1.75;;
84915;SDS011;75178;53.054;5.846;2024-03-02T16:18:00;4.85;;;1.92;;
84915;SDS011;75178;53.054;5.846;2024-03-02T16:20:44;2.97;;;1.92;;
84915;SDS011;75178;53.054;5.846;2024-03-02T16:26:51;2.40;;;1.45;;
84915;SDS011;75178;53.054;5.846;2024-03-02T16:29:37;4.70;;;1.80;;
84915;SDS011;75178;53.054;5.846;2024-03-02T16:32:21;2.70;;;1.70;;
84915;SDS011;75178;53.054;5.846;2024-03-02T16:35:05;3.38;;;1.77;;
84915;SDS011;75178;53.054;5.846;2024-03-02T16:37:50;3.70;;;1.55;;
84915;SDS011;75178;53.054;5.846;2024-03-02T16:40:34;5.22;;;1.95;;
84915;SDS011;75178;53.054;5.846;2024-03-02T16:43:18;4.00;;;1.60;;